sensor_id;sensor_type;location;lat;lon;timestamp;P1;durP1;ratioP1;P2;durP2;ratioP2
64633;SDS011;51043;52.406;9.690;2024-01-11T00:01:59;39.63;;;22.00;;
64633;SDS011;51043;52.406;9.690;2024-01-11T00:04:27;40.00;;;22.93;;
64633;SDS011;51043;52.406;9.690;2024-01-11T00:06:57;38.43;;;22.60;;
64633;SDS011;51043;52.406;9.690;2024-01-11T00:09:25;42.17;;;22.50;;
64633;SDS011;51043;52.406;9.690;2024-01-11T00:11:53;45.60;;;23.70;;
64633;SDS011;51043;52.406;9.690;2024-01-11T00:14:22;47.63;;;24.50;;
64633;SDS011;51043;52.406;9.690;2024-01-11T00:16:50;48.73;;;25.83;;
64633;SDS011;51043;52.406;9.690;2024-01-11T00:19:18;45.73;;;25.67;;
64633;SDS011;51043;52.406;9.690;2024-01-11T00:21:46;47.50;;;25.23;;
64633;SDS011;51043;52.406;9.690;2024-01-11T00:24:14;44.60;;;25.70;;
64633;SDS011;51043;52.406;9.690;2024-01-11T00:26:42;45.93;;;24.97;;
64633;SDS011;51043;52.406;9.690;2024-01-11T00:29:13;46.70;;;26.30;;
64633;SDS011;51043;52.406;9.690;2024-01-11T00:31:42;43.30;;;24.33;;
64633;SDS011;51043;52.406;9.690;2024-01-11T00:34:15;47.73;;;24.57;;
64633;SDS011;51043;52.406;9.690;2024-01-11T00:36:44;40.33;;;23.13;;
64633;SDS011;51043;52.406;9.690;2024-01-11T00:39:15;45.70;;;24.13;;
64633;SDS011;51043;52.406;9.690;2024-01-11T00:41:47;43.13;;;23.13;;
64633;SDS011;51043;52.406;9.690;2024-01-11T00:44:15;42.27;;;22.83;;
64633;SDS011;51043;52.406;9.690;2024-01-11T00:46:48;44.87;;;22.40;;
64633;SDS011;51043;52.406;9.690;2024-01-11T00:49:16;44.63;;;23.50;;
64633;SDS011;51043;52.406;9.690;2024-01-11T00:51:44;42.07;;;23.70;;
64633;SDS011;51043;52.406;9.690;2024-01-11T00:54:13;40.33;;;23.00;;
64633;SDS011;51043;52.406;9.690;2024-01-11T00:56:41;35.37;;;21.07;;
64633;SDS011;51043;52.406;9.690;2024-01-11T00:59:09;35.03;;;21.73;;
64633;SDS011;51043;52.406;9.690;2024-01-11T01:01:38;41.97;;;21.50;;
64633;SDS011;51043;52.406;9.690;2024-01-11T01:04:07;33.00;;;19.93;;
64633;SDS011;51043;52.406;9.690;2024-01-11T01:06:35;36.70;;;19.17;;
64633;SDS011;51043;52.406;9.690;2024-01-11T01:09:03;34.43;;;19.27;;
64633;SDS011;51043;52.406;9.690;2024-01-11T01:11:31;32.67;;;19.50;;
64633;SDS011;51043;52.406;9.690;2024-01-11T01:14:00;34.57;;;19.73;;
64633;SDS011;51043;52.406;9.690;2024-01-11T01:16:29;36.23;;;20.10;;
64633;SDS011;51043;52.406;9.690;2024-01-11T01:18:57;36.33;;;20.47;;
64633;SDS011;51043;52.406;9.690;2024-01-11T01:21:27;34.00;;;18.83;;
64633;SDS011;51043;52.406;9.690;2024-01-11T01:23:55;32.63;;;18.63;;
64633;SDS011;51043;52.406;9.690;2024-01-11T01:26:23;34.27;;;18.57;;
64633;SDS011;51043;52.406;9.690;2024-01-11T01:28:51;34.70;;;18.63;;
64633;SDS011;51043;52.406;9.690;2024-01-11T01:31:20;35.60;;;18.37;;
64633;SDS011;51043;52.406;9.690;2024-01-11T01:33:49;33.97;;;18.73;;
64633;SDS011;51043;52.406;9.690;2024-01-11T01:36:17;30.83;;;18.73;;
64633;SDS011;51043;52.406;9.690;2024-01-11T01:38:46;31.00;;;18.83;;
64633;SDS011;51043;52.406;9.690;2024-01-11T01:41:17;32.10;;;19.63;;
64633;SDS011;51043;52.406;9.690;2024-01-11T01:43:45;33.93;;;18.57;;
64633;SDS011;51043;52.406;9.690;2024-01-11T01:46:18;38.37;;;18.93;;
64633;SDS011;51043;52.406;9.690;2024-01-11T01:48:49;32.90;;;18.30;;
64633;SDS011;51043;52.406;9.690;2024-01-11T01:51:19;30.77;;;17.50;;
64633;SDS011;51043;52.406;9.690;2024-01-11T01:53:49;32.10;;;18.80;;
64633;SDS011;51043;52.406;9.690;2024-01-11T01:56:20;31.90;;;18.77;;
64633;SDS011;51043;52.406;9.690;2024-01-11T01:58:49;30.80;;;17.83;;
64633;SDS011;51043;52.406;9.690;2024-01-11T02:01:19;32.90;;;18.47;;
64633;SDS011;51043;52.406;9.690;2024-01-11T02:03:49;31.93;;;18.63;;
64633;SDS011;51043;52.406;9.690;2024-01-11T02:06:20;34.83;;;18.40;;
64633;SDS011;51043;52.406;9.690;2024-01-11T02:08:54;30.00;;;18.30;;
64633;SDS011;51043;52.406;9.690;2024-01-11T02:11:23;30.20;;;17.07;;
64633;SDS011;51043;52.406;9.690;2024-01-11T02:13:52;35.03;;;19.63;;
64633;SDS011;51043;52.406;9.690;2024-01-11T02:16:22;33.30;;;19.17;;
64633;SDS011;51043;52.406;9.690;2024-01-11T02:18:50;30.60;;;17.30;;
64633;SDS011;51043;52.406;9.690;2024-01-11T02:21:21;36.67;;;19.30;;
64633;SDS011;51043;52.406;9.690;2024-01-11T02:23:56;35.23;;;18.83;;
64633;SDS011;51043;52.406;9.690;2024-01-11T02:26:30;36.17;;;18.80;;
64633;SDS011;51043;52.406;9.690;2024-01-11T02:28:59;33.40;;;18.13;;
64633;SDS011;51043;52.406;9.690;2024-01-11T02:31:27;32.40;;;18.37;;
64633;SDS011;51043;52.406;9.690;2024-01-11T02:33:55;36.23;;;19.90;;
64633;SDS011;51043;52.406;9.690;2024-01-11T02:36:25;33.20;;;18.03;;
64633;SDS011;51043;52.406;9.690;2024-01-11T02:38:55;36.57;;;19.03;;
64633;SDS011;51043;52.406;9.690;2024-01-11T02:41:23;29.77;;;17.43;;
64633;SDS011;51043;52.406;9.690;2024-01-11T02:43:52;31.80;;;18.57;;
64633;SDS011;51043;52.406;9.690;2024-01-11T02:46:21;35.27;;;17.67;;
64633;SDS011;51043;52.406;9.690;2024-01-11T02:48:50;33.67;;;19.23;;
64633;SDS011;51043;52.406;9.690;2024-01-11T02:51:18;36.60;;;19.07;;
64633;SDS011;51043;52.406;9.690;2024-01-11T02:53:47;35.50;;;18.47;;
64633;SDS011;51043;52.406;9.690;2024-01-11T02:56:17;34.30;;;18.90;;
64633;SDS011;51043;52.406;9.690;2024-01-11T02:58:45;31.87;;;17.93;;
64633;SDS011;51043;52.406;9.690;2024-01-11T03:01:16;31.07;;;18.40;;
64633;SDS011;51043;52.406;9.690;2024-01-11T03:03:44;38.93;;;18.97;;
64633;SDS011;51043;52.406;9.690;2024-01-11T03:06:13;33.90;;;18.33;;
64633;SDS011;51043;52.406;9.690;2024-01-11T03:08:44;29.73;;;18.53;;
64633;SDS011;51043;52.406;9.690;2024-01-11T03:11:12;32.67;;;18.47;;
64633;SDS011;51043;52.406;9.690;2024-01-11T03:13:42;34.97;;;18.70;;
64633;SDS011;51043;52.406;9.690;2024-01-11T03:16:10;32.33;;;18.53;;
64633;SDS011;51043;52.406;9.690;2024-01-11T03:18:38;32.40;;;19.03;;
64633;SDS011;51043;52.406;9.690;2024-01-11T03:21:06;34.43;;;18.17;;
64633;SDS011;51043;52.406;9.690;2024-01-11T03:23:34;30.37;;;18.40;;
64633;SDS011;51043;52.406;9.690;2024-01-11T03:26:02;35.27;;;19.10;;
64633;SDS011;51043;52.406;9.690;2024-01-11T03:28:30;34.00;;;17.23;;
64633;SDS011;51043;52.406;9.690;2024-01-11T03:31:00;34.10;;;18.47;;
64633;SDS011;51043;52.406;9.690;2024-01-11T03:33:28;30.93;;;17.07;;
64633;SDS011;51043;52.406;9.690;2024-01-11T03:35:58;36.17;;;18.67;;
64633;SDS011;51043;52.406;9.690;2024-01-11T03:38:26;31.70;;;18.13;;
64633;SDS011;51043;52.406;9.690;2024-01-11T03:40:56;36.07;;;18.47;;
64633;SDS011;51043;52.406;9.690;2024-01-11T03:43:25;31.60;;;17.80;;
64633;SDS011;51043;52.406;9.690;2024-01-11T03:45:54;36.17;;;19.23;;
64633;SDS011;51043;52.406;9.690;2024-01-11T03:48:28;33.17;;;18.77;;
64633;SDS011;51043;52.406;9.690;2024-01-11T03:50:57;34.00;;;18.87;;
64633;SDS011;51043;52.406;9.690;2024-01-11T03:53:25;34.20;;;18.30;;
64633;SDS011;51043;52.406;9.690;2024-01-11T03:55:53;34.47;;;19.10;;
64633;SDS011;51043;52.406;9.690;2024-01-11T03:58:21;32.53;;;19.10;;
64633;SDS011;51043;52.406;9.690;2024-01-11T04:00:51;34.00;;;19.10;;
64633;SDS011;51043;52.406;9.690;2024-01-11T04:03:20;36.97;;;19.23;;
64633;SDS011;51043;52.406;9.690;2024-01-11T04:05:50;35.60;;;19.50;;
64633;SDS011;51043;52.406;9.690;2024-01-11T04:08:17;33.67;;;18.60;;
64633;SDS011;51043;52.406;9.690;2024-01-11T04:10:45;33.70;;;18.67;;
64633;SDS011;51043;52.406;9.690;2024-01-11T04:13:15;34.43;;;18.57;;
64633;SDS011;51043;52.406;9.690;2024-01-11T04:15:43;35.40;;;19.27;;
64633;SDS011;51043;52.406;9.690;2024-01-11T04:18:12;34.00;;;19.50;;
64633;SDS011;51043;52.406;9.690;2024-01-11T04:20:42;36.50;;;18.07;;
64633;SDS011;51043;52.406;9.690;2024-01-11T04:23:15;31.90;;;18.87;;
64633;SDS011;51043;52.406;9.690;2024-01-11T04:25:45;37.83;;;18.87;;
64633;SDS011;51043;52.406;9.690;2024-01-11T04:28:15;33.50;;;18.23;;
64633;SDS011;51043;52.406;9.690;2024-01-11T04:30:44;31.47;;;18.93;;
64633;SDS011;51043;52.406;9.690;2024-01-11T04:33:14;30.93;;;18.70;;
64633;SDS011;51043;52.406;9.690;2024-01-11T04:35:43;34.23;;;18.97;;
64633;SDS011;51043;52.406;9.690;2024-01-11T04:38:14;35.80;;;18.57;;
64633;SDS011;51043;52.406;9.690;2024-01-11T04:40:42;33.63;;;18.40;;
64633;SDS011;51043;52.406;9.690;2024-01-11T04:43:11;32.87;;;18.07;;
64633;SDS011;51043;52.406;9.690;2024-01-11T04:45:39;34.27;;;18.90;;
64633;SDS011;51043;52.406;9.690;2024-01-11T04:48:07;35.10;;;18.80;;
64633;SDS011;51043;52.406;9.690;2024-01-11T04:50:35;33.13;;;18.37;;
64633;SDS011;51043;52.406;9.690;2024-01-11T04:53:03;30.60;;;18.37;;
64633;SDS011;51043;52.406;9.690;2024-01-11T04:55:32;31.17;;;17.47;;
64633;SDS011;51043;52.406;9.690;2024-01-11T04:58:00;33.33;;;18.20;;
64633;SDS011;51043;52.406;9.690;2024-01-11T05:00:28;31.87;;;18.40;;
64633;SDS011;51043;52.406;9.690;2024-01-11T05:02:57;38.50;;;18.87;;
64633;SDS011;51043;52.406;9.690;2024-01-11T05:05:25;37.13;;;18.73;;
64633;SDS011;51043;52.406;9.690;2024-01-11T05:07:53;40.70;;;20.70;;
64633;SDS011;51043;52.406;9.690;2024-01-11T05:10:21;40.43;;;20.73;;
64633;SDS011;51043;52.406;9.690;2024-01-11T05:12:51;39.73;;;19.73;;
64633;SDS011;51043;52.406;9.690;2024-01-11T05:15:19;40.90;;;19.93;;
64633;SDS011;51043;52.406;9.690;2024-01-11T05:17:47;37.37;;;19.63;;
64633;SDS011;51043;52.406;9.690;2024-01-11T05:20:17;37.93;;;20.73;;
64633;SDS011;51043;52.406;9.690;2024-01-11T05:22:45;35.60;;;20.17;;
64633;SDS011;51043;52.406;9.690;2024-01-11T05:25:13;39.57;;;20.17;;
64633;SDS011;51043;52.406;9.690;2024-01-11T05:27:41;35.67;;;19.70;;
64633;SDS011;51043;52.406;9.690;2024-01-11T05:30:11;37.90;;;20.17;;
64633;SDS011;51043;52.406;9.690;2024-01-11T05:32:40;40.20;;;21.50;;
64633;SDS011;51043;52.406;9.690;2024-01-11T05:35:08;40.67;;;19.73;;
64633;SDS011;51043;52.406;9.690;2024-01-11T05:37:36;36.93;;;19.70;;
64633;SDS011;51043;52.406;9.690;2024-01-11T05:40:05;36.33;;;19.80;;
64633;SDS011;51043;52.406;9.690;2024-01-11T05:42:34;34.57;;;18.77;;
64633;SDS011;51043;52.406;9.690;2024-01-11T05:45:03;34.17;;;19.97;;
64633;SDS011;51043;52.406;9.690;2024-01-11T05:47:34;38.00;;;19.43;;
64633;SDS011;51043;52.406;9.690;2024-01-11T05:50:04;35.80;;;19.50;;
64633;SDS011;51043;52.406;9.690;2024-01-11T05:52:34;36.07;;;19.83;;
64633;SDS011;51043;52.406;9.690;2024-01-11T05:55:03;35.87;;;19.63;;
64633;SDS011;51043;52.406;9.690;2024-01-11T05:57:33;40.00;;;20.07;;
64633;SDS011;51043;52.406;9.690;2024-01-11T06:00:03;34.00;;;19.53;;
64633;SDS011;51043;52.406;9.690;2024-01-11T06:02:35;35.97;;;18.83;;
64633;SDS011;51043;52.406;9.690;2024-01-11T06:05:04;35.50;;;19.67;;
64633;SDS011;51043;52.406;9.690;2024-01-11T06:07:35;33.57;;;19.50;;
64633;SDS011;51043;52.406;9.690;2024-01-11T06:10:03;36.97;;;19.43;;
64633;SDS011;51043;52.406;9.690;2024-01-11T06:12:32;35.83;;;20.20;;
64633;SDS011;51043;52.406;9.690;2024-01-11T06:15:00;35.50;;;19.83;;
64633;SDS011;51043;52.406;9.690;2024-01-11T06:17:29;40.00;;;19.10;;
64633;SDS011;51043;52.406;9.690;2024-01-11T06:19:58;38.97;;;20.33;;
64633;SDS011;51043;52.406;9.690;2024-01-11T06:22:27;37.03;;;20.60;;
64633;SDS011;51043;52.406;9.690;2024-01-11T06:24:56;38.13;;;20.07;;
64633;SDS011;51043;52.406;9.690;2024-01-11T06:27:30;38.13;;;20.87;;
64633;SDS011;51043;52.406;9.690;2024-01-11T06:29:58;38.10;;;20.50;;
64633;SDS011;51043;52.406;9.690;2024-01-11T06:32:29;35.93;;;20.27;;
64633;SDS011;51043;52.406;9.690;2024-01-11T06:34:59;47.53;;;20.60;;
64633;SDS011;51043;52.406;9.690;2024-01-11T06:37:28;36.83;;;19.83;;
64633;SDS011;51043;52.406;9.690;2024-01-11T06:39:56;41.23;;;20.17;;
64633;SDS011;51043;52.406;9.690;2024-01-11T06:42:24;42.07;;;20.87;;
64633;SDS011;51043;52.406;9.690;2024-01-11T06:44:52;34.70;;;19.20;;
64633;SDS011;51043;52.406;9.690;2024-01-11T06:47:20;36.40;;;20.27;;
64633;SDS011;51043;52.406;9.690;2024-01-11T06:49:48;35.83;;;19.43;;
64633;SDS011;51043;52.406;9.690;2024-01-11T06:52:20;40.80;;;20.20;;
64633;SDS011;51043;52.406;9.690;2024-01-11T06:54:49;39.40;;;20.43;;
64633;SDS011;51043;52.406;9.690;2024-01-11T06:57:17;33.20;;;18.43;;
64633;SDS011;51043;52.406;9.690;2024-01-11T06:59:45;37.57;;;20.43;;
64633;SDS011;51043;52.406;9.690;2024-01-11T07:02:17;38.90;;;20.83;;
64633;SDS011;51043;52.406;9.690;2024-01-11T07:04:48;43.63;;;21.70;;
64633;SDS011;51043;52.406;9.690;2024-01-11T07:07:17;43.30;;;20.30;;
64633;SDS011;51043;52.406;9.690;2024-01-11T07:09:47;42.90;;;21.30;;
64633;SDS011;51043;52.406;9.690;2024-01-11T07:12:16;34.27;;;19.47;;
64633;SDS011;51043;52.406;9.690;2024-01-11T07:14:44;37.87;;;20.50;;
64633;SDS011;51043;52.406;9.690;2024-01-11T07:17:13;39.07;;;19.97;;
64633;SDS011;51043;52.406;9.690;2024-01-11T07:19:42;38.00;;;20.90;;
64633;SDS011;51043;52.406;9.690;2024-01-11T07:22:10;43.40;;;22.40;;
64633;SDS011;51043;52.406;9.690;2024-01-11T07:24:41;40.67;;;20.87;;
64633;SDS011;51043;52.406;9.690;2024-01-11T07:27:21;38.20;;;22.23;;
64633;SDS011;51043;52.406;9.690;2024-01-11T07:29:49;39.60;;;21.07;;
64633;SDS011;51043;52.406;9.690;2024-01-11T07:32:20;39.00;;;20.83;;
64633;SDS011;51043;52.406;9.690;2024-01-11T07:34:50;35.83;;;19.80;;
64633;SDS011;51043;52.406;9.690;2024-01-11T07:37:19;42.77;;;21.10;;
64633;SDS011;51043;52.406;9.690;2024-01-11T07:39:47;41.50;;;20.80;;
64633;SDS011;51043;52.406;9.690;2024-01-11T07:42:16;39.57;;;21.87;;
64633;SDS011;51043;52.406;9.690;2024-01-11T07:44:47;47.83;;;21.50;;
64633;SDS011;51043;52.406;9.690;2024-01-11T07:47:17;38.27;;;21.07;;
64633;SDS011;51043;52.406;9.690;2024-01-11T07:49:46;36.83;;;19.67;;
64633;SDS011;51043;52.406;9.690;2024-01-11T07:52:14;39.07;;;21.77;;
64633;SDS011;51043;52.406;9.690;2024-01-11T07:54:43;36.07;;;21.27;;
64633;SDS011;51043;52.406;9.690;2024-01-11T07:57:14;42.50;;;21.13;;
64633;SDS011;51043;52.406;9.690;2024-01-11T07:59:43;39.33;;;21.63;;
64633;SDS011;51043;52.406;9.690;2024-01-11T08:02:13;38.87;;;21.40;;
64633;SDS011;51043;52.406;9.690;2024-01-11T08:04:42;44.47;;;22.80;;
64633;SDS011;51043;52.406;9.690;2024-01-11T08:07:12;38.07;;;20.87;;
64633;SDS011;51043;52.406;9.690;2024-01-11T08:09:43;40.17;;;22.10;;
64633;SDS011;51043;52.406;9.690;2024-01-11T08:12:12;40.43;;;23.03;;
64633;SDS011;51043;52.406;9.690;2024-01-11T08:14:40;42.20;;;22.97;;
64633;SDS011;51043;52.406;9.690;2024-01-11T08:17:09;38.67;;;21.70;;
64633;SDS011;51043;52.406;9.690;2024-01-11T08:19:39;31.90;;;20.03;;
64633;SDS011;51043;52.406;9.690;2024-01-11T08:22:09;37.53;;;21.80;;
64633;SDS011;51043;52.406;9.690;2024-01-11T08:24:37;40.50;;;20.57;;
64633;SDS011;51043;52.406;9.690;2024-01-11T08:31:01;38.80;;;21.40;;
64633;SDS011;51043;52.406;9.690;2024-01-11T08:33:31;32.13;;;16.30;;
64633;SDS011;51043;52.406;9.690;2024-01-11T08:36:00;37.30;;;21.77;;
64633;SDS011;51043;52.406;9.690;2024-01-11T08:38:30;38.07;;;21.00;;
64633;SDS011;51043;52.406;9.690;2024-01-11T08:40:58;35.30;;;20.30;;
64633;SDS011;51043;52.406;9.690;2024-01-11T08:43:26;34.73;;;20.83;;
64633;SDS011;51043;52.406;9.690;2024-01-11T08:45:54;34.30;;;22.00;;
64633;SDS011;51043;52.406;9.690;2024-01-11T08:48:23;34.10;;;21.40;;
64633;SDS011;51043;52.406;9.690;2024-01-11T08:50:51;40.60;;;22.53;;
64633;SDS011;51043;52.406;9.690;2024-01-11T08:53:21;41.87;;;25.90;;
64633;SDS011;51043;52.406;9.690;2024-01-11T08:55:49;39.53;;;23.50;;
64633;SDS011;51043;52.406;9.690;2024-01-11T08:58:20;35.33;;;21.23;;
64633;SDS011;51043;52.406;9.690;2024-01-11T09:00:49;34.03;;;20.43;;
64633;SDS011;51043;52.406;9.690;2024-01-11T09:03:18;33.03;;;19.73;;
64633;SDS011;51043;52.406;9.690;2024-01-11T09:05:46;38.50;;;20.93;;
64633;SDS011;51043;52.406;9.690;2024-01-11T09:08:15;29.83;;;17.57;;
64633;SDS011;51043;52.406;9.690;2024-01-11T09:10:44;38.47;;;20.10;;
64633;SDS011;51043;52.406;9.690;2024-01-11T09:13:12;34.00;;;18.57;;
64633;SDS011;51043;52.406;9.690;2024-01-11T09:15:42;32.07;;;18.33;;
64633;SDS011;51043;52.406;9.690;2024-01-11T09:18:10;41.90;;;21.37;;
64633;SDS011;51043;52.406;9.690;2024-01-11T09:20:38;38.33;;;20.73;;
64633;SDS011;51043;52.406;9.690;2024-01-11T09:23:07;43.07;;;21.03;;
64633;SDS011;51043;52.406;9.690;2024-01-11T09:25:35;33.43;;;20.00;;
64633;SDS011;51043;52.406;9.690;2024-01-11T09:28:06;36.70;;;21.73;;
64633;SDS011;51043;52.406;9.690;2024-01-11T09:30:34;39.03;;;22.10;;
64633;SDS011;51043;52.406;9.690;2024-01-11T09:33:03;41.63;;;22.57;;
64633;SDS011;51043;52.406;9.690;2024-01-11T09:35:32;39.77;;;22.83;;
64633;SDS011;51043;52.406;9.690;2024-01-11T09:38:00;42.33;;;23.13;;
64633;SDS011;51043;52.406;9.690;2024-01-11T09:40:28;44.00;;;23.50;;
64633;SDS011;51043;52.406;9.690;2024-01-11T09:42:57;43.60;;;23.03;;
64633;SDS011;51043;52.406;9.690;2024-01-11T09:45:27;44.00;;;24.57;;
64633;SDS011;51043;52.406;9.690;2024-01-11T09:47:55;53.40;;;27.70;;
64633;SDS011;51043;52.406;9.690;2024-01-11T09:50:23;46.90;;;24.77;;
64633;SDS011;51043;52.406;9.690;2024-01-11T09:52:53;35.00;;;19.40;;
64633;SDS011;51043;52.406;9.690;2024-01-11T09:55:21;39.63;;;22.57;;
64633;SDS011;51043;52.406;9.690;2024-01-11T09:57:50;50.10;;;24.60;;
64633;SDS011;51043;52.406;9.690;2024-01-11T10:00:24;46.13;;;23.80;;
64633;SDS011;51043;52.406;9.690;2024-01-11T10:02:54;41.67;;;22.50;;
64633;SDS011;51043;52.406;9.690;2024-01-11T10:05:22;43.17;;;23.00;;
64633;SDS011;51043;52.406;9.690;2024-01-11T10:07:54;39.13;;;23.23;;
64633;SDS011;51043;52.406;9.690;2024-01-11T10:10:42;46.60;;;25.37;;
64633;SDS011;51043;52.406;9.690;2024-01-11T10:13:11;35.07;;;20.63;;
64633;SDS011;51043;52.406;9.690;2024-01-11T10:15:39;49.40;;;25.63;;
64633;SDS011;51043;52.406;9.690;2024-01-11T10:18:08;48.27;;;26.20;;
64633;SDS011;51043;52.406;9.690;2024-01-11T10:20:37;45.90;;;24.10;;
64633;SDS011;51043;52.406;9.690;2024-01-11T10:23:05;44.17;;;20.73;;
64633;SDS011;51043;52.406;9.690;2024-01-11T10:25:35;43.53;;;22.30;;
64633;SDS011;51043;52.406;9.690;2024-01-11T10:28:03;48.70;;;26.47;;
64633;SDS011;51043;52.406;9.690;2024-01-11T10:30:35;41.03;;;23.33;;
64633;SDS011;51043;52.406;9.690;2024-01-11T10:33:03;47.63;;;24.70;;
64633;SDS011;51043;52.406;9.690;2024-01-11T10:35:34;58.10;;;26.17;;
64633;SDS011;51043;52.406;9.690;2024-01-11T10:38:03;47.70;;;25.67;;
64633;SDS011;51043;52.406;9.690;2024-01-11T10:40:36;48.13;;;25.00;;
64633;SDS011;51043;52.406;9.690;2024-01-11T10:43:05;45.43;;;24.70;;
64633;SDS011;51043;52.406;9.690;2024-01-11T10:45:37;50.33;;;26.43;;
64633;SDS011;51043;52.406;9.690;2024-01-11T10:48:06;43.93;;;22.70;;
64633;SDS011;51043;52.406;9.690;2024-01-11T10:50:43;47.57;;;22.80;;
64633;SDS011;51043;52.406;9.690;2024-01-11T10:53:12;42.83;;;22.47;;
64633;SDS011;51043;52.406;9.690;2024-01-11T10:55:54;31.37;;;18.17;;
64633;SDS011;51043;52.406;9.690;2024-01-11T10:58:23;35.00;;;20.40;;
64633;SDS011;51043;52.406;9.690;2024-01-11T11:00:54;34.43;;;20.67;;
64633;SDS011;51043;52.406;9.690;2024-01-11T11:03:23;33.37;;;21.23;;
64633;SDS011;51043;52.406;9.690;2024-01-11T11:05:54;38.70;;;21.90;;
64633;SDS011;51043;52.406;9.690;2024-01-11T11:08:23;36.03;;;20.13;;
64633;SDS011;51043;52.406;9.690;2024-01-11T11:10:54;37.17;;;21.40;;
64633;SDS011;51043;52.406;9.690;2024-01-11T11:13:24;34.10;;;19.13;;
64633;SDS011;51043;52.406;9.690;2024-01-11T11:15:53;33.20;;;18.63;;
64633;SDS011;51043;52.406;9.690;2024-01-11T11:18:25;24.87;;;13.40;;
64633;SDS011;51043;52.406;9.690;2024-01-11T11:20:55;35.77;;;19.33;;
64633;SDS011;51043;52.406;9.690;2024-01-11T11:23:23;37.47;;;20.90;;
64633;SDS011;51043;52.406;9.690;2024-01-11T11:25:53;39.20;;;19.23;;
64633;SDS011;51043;52.406;9.690;2024-01-11T11:28:23;40.70;;;20.67;;
64633;SDS011;51043;52.406;9.690;2024-01-11T11:30:52;41.63;;;19.40;;
64633;SDS011;51043;52.406;9.690;2024-01-11T11:33:24;33.50;;;19.37;;
64633;SDS011;51043;52.406;9.690;2024-01-11T11:35:53;34.77;;;19.57;;
64633;SDS011;51043;52.406;9.690;2024-01-11T11:38:25;39.67;;;21.07;;
64633;SDS011;51043;52.406;9.690;2024-01-11T11:40:56;37.63;;;21.63;;
64633;SDS011;51043;52.406;9.690;2024-01-11T11:43:26;39.03;;;22.10;;
64633;SDS011;51043;52.406;9.690;2024-01-11T11:45:55;41.83;;;22.17;;
64633;SDS011;51043;52.406;9.690;2024-01-11T11:51:21;36.27;;;21.27;;
64633;SDS011;51043;52.406;9.690;2024-01-11T11:53:51;34.70;;;19.77;;
64633;SDS011;51043;52.406;9.690;2024-01-11T11:56:23;39.67;;;20.77;;
64633;SDS011;51043;52.406;9.690;2024-01-11T11:58:55;42.93;;;22.03;;
64633;SDS011;51043;52.406;9.690;2024-01-11T12:01:24;36.57;;;21.10;;
64633;SDS011;51043;52.406;9.690;2024-01-11T12:03:53;42.00;;;21.93;;
64633;SDS011;51043;52.406;9.690;2024-01-11T12:06:23;33.10;;;19.83;;
64633;SDS011;51043;52.406;9.690;2024-01-11T12:08:54;32.93;;;18.37;;
64633;SDS011;51043;52.406;9.690;2024-01-11T12:11:23;31.20;;;17.17;;
64633;SDS011;51043;52.406;9.690;2024-01-11T12:13:52;31.33;;;16.73;;
64633;SDS011;51043;52.406;9.690;2024-01-11T12:16:25;30.60;;;17.63;;
64633;SDS011;51043;52.406;9.690;2024-01-11T12:18:53;32.80;;;18.03;;
64633;SDS011;51043;52.406;9.690;2024-01-11T12:21:26;27.40;;;15.53;;
64633;SDS011;51043;52.406;9.690;2024-01-11T12:23:54;31.03;;;17.50;;
64633;SDS011;51043;52.406;9.690;2024-01-11T12:26:23;30.93;;;17.23;;
64633;SDS011;51043;52.406;9.690;2024-01-11T12:28:51;30.17;;;17.03;;
64633;SDS011;51043;52.406;9.690;2024-01-11T12:31:21;37.23;;;18.77;;
64633;SDS011;51043;52.406;9.690;2024-01-11T12:33:49;32.77;;;17.07;;
64633;SDS011;51043;52.406;9.690;2024-01-11T12:36:18;31.93;;;18.47;;
64633;SDS011;51043;52.406;9.690;2024-01-11T12:38:48;30.37;;;17.97;;
64633;SDS011;51043;52.406;9.690;2024-01-11T12:41:17;33.10;;;18.90;;
64633;SDS011;51043;52.406;9.690;2024-01-11T12:43:45;34.43;;;19.00;;
64633;SDS011;51043;52.406;9.690;2024-01-11T12:46:13;31.00;;;17.00;;
64633;SDS011;51043;52.406;9.690;2024-01-11T12:48:43;29.70;;;17.17;;
64633;SDS011;51043;52.406;9.690;2024-01-11T12:51:12;30.87;;;17.90;;
64633;SDS011;51043;52.406;9.690;2024-01-11T12:53:44;32.60;;;18.13;;
64633;SDS011;51043;52.406;9.690;2024-01-11T12:56:15;30.13;;;17.93;;
64633;SDS011;51043;52.406;9.690;2024-01-11T12:58:45;32.77;;;17.47;;
64633;SDS011;51043;52.406;9.690;2024-01-11T13:01:15;29.43;;;17.60;;
64633;SDS011;51043;52.406;9.690;2024-01-11T13:03:46;34.20;;;16.87;;
64633;SDS011;51043;52.406;9.690;2024-01-11T13:06:15;28.23;;;17.80;;
64633;SDS011;51043;52.406;9.690;2024-01-11T13:08:46;32.10;;;17.63;;
64633;SDS011;51043;52.406;9.690;2024-01-11T13:11:17;29.47;;;18.27;;
64633;SDS011;51043;52.406;9.690;2024-01-11T13:13:47;28.50;;;16.80;;
64633;SDS011;51043;52.406;9.690;2024-01-11T13:16:15;29.77;;;16.27;;
64633;SDS011;51043;52.406;9.690;2024-01-11T13:18:45;29.50;;;15.90;;
64633;SDS011;51043;52.406;9.690;2024-01-11T13:21:13;31.40;;;16.77;;
64633;SDS011;51043;52.406;9.690;2024-01-11T13:23:41;28.57;;;17.63;;
64633;SDS011;51043;52.406;9.690;2024-01-11T13:26:10;32.23;;;18.27;;
64633;SDS011;51043;52.406;9.690;2024-01-11T13:28:39;32.47;;;17.87;;
64633;SDS011;51043;52.406;9.690;2024-01-11T13:31:08;32.97;;;17.40;;
64633;SDS011;51043;52.406;9.690;2024-01-11T13:33:37;33.20;;;18.43;;
64633;SDS011;51043;52.406;9.690;2024-01-11T13:36:06;32.37;;;18.03;;
64633;SDS011;51043;52.406;9.690;2024-01-11T13:38:35;33.10;;;18.93;;
64633;SDS011;51043;52.406;9.690;2024-01-11T13:41:03;30.77;;;18.10;;
64633;SDS011;51043;52.406;9.690;2024-01-11T13:43:34;30.27;;;19.07;;
64633;SDS011;51043;52.406;9.690;2024-01-11T13:46:04;29.10;;;18.83;;
64633;SDS011;51043;52.406;9.690;2024-01-11T13:48:32;32.23;;;18.57;;
64633;SDS011;51043;52.406;9.690;2024-01-11T13:51:00;42.33;;;19.13;;
64633;SDS011;51043;52.406;9.690;2024-01-11T13:53:30;30.47;;;18.70;;
64633;SDS011;51043;52.406;9.690;2024-01-11T13:56:02;27.57;;;16.00;;
64633;SDS011;51043;52.406;9.690;2024-01-11T13:58:32;37.37;;;19.83;;
64633;SDS011;51043;52.406;9.690;2024-01-11T14:01:00;31.60;;;18.90;;
64633;SDS011;51043;52.406;9.690;2024-01-11T14:03:33;32.43;;;20.17;;
64633;SDS011;51043;52.406;9.690;2024-01-11T14:06:02;30.77;;;19.07;;
64633;SDS011;51043;52.406;9.690;2024-01-11T14:08:30;34.67;;;20.00;;
64633;SDS011;51043;52.406;9.690;2024-01-11T14:10:58;33.80;;;19.63;;
64633;SDS011;51043;52.406;9.690;2024-01-11T14:13:27;30.10;;;17.43;;
64633;SDS011;51043;52.406;9.690;2024-01-11T14:15:54;32.63;;;19.90;;
64633;SDS011;51043;52.406;9.690;2024-01-11T14:18:26;35.03;;;20.80;;
64633;SDS011;51043;52.406;9.690;2024-01-11T14:20:54;36.93;;;21.03;;
64633;SDS011;51043;52.406;9.690;2024-01-11T14:23:24;33.53;;;19.43;;
64633;SDS011;51043;52.406;9.690;2024-01-11T14:25:53;39.47;;;20.53;;
64633;SDS011;51043;52.406;9.690;2024-01-11T14:28:24;46.23;;;23.30;;
64633;SDS011;51043;52.406;9.690;2024-01-11T14:30:54;41.43;;;22.23;;
64633;SDS011;51043;52.406;9.690;2024-01-11T14:33:22;40.00;;;22.73;;
64633;SDS011;51043;52.406;9.690;2024-01-11T14:35:52;40.50;;;22.93;;
64633;SDS011;51043;52.406;9.690;2024-01-11T14:38:21;42.17;;;20.83;;
64633;SDS011;51043;52.406;9.690;2024-01-11T14:40:53;40.10;;;22.33;;